Time;durP1;ratioP1;P1;durP2;ratioP2;P2;SDS_P1;SDS_P2;PMS_P1;PMS_P2;Temp;Humidity;BMP_temperature;BMP_pressure;BME280_temperature;BME280_humidity;BME280_pressure;Samples;Min_cycle;Max_cycle;Signal;HPM_P1;HPM_P2
2023/07/09 00:01:18;;;;;;;3.25;2.05;;;20.90;71.50;;;;;;4905690;29;20159;-61
2023/07/09 00:03:46;;;;;;;2.88;1.88;;;20.90;71.60;;;;;;4919139;29;20091;-61
2023/07/09 00:06:12;;;;;;;2.25;1.80;;;20.80;71.70;;;;;;4920128;29;20040;-61
2023/07/09 00:08:43;;;;;;;3.20;2.10;;;20.80;71.80;;;;;;4916782;29;20056;-61
2023/07/09 00:11:09;;;;;;;3.08;2.13;;;20.70;72.20;;;;;;4927745;29;20036;-61
2023/07/09 00:13:35;;;;;;;2.83;2.08;;;20.60;72.40;;;;;;4926093;29;20039;-61
2023/07/09 00:16:07;;;;;;;3.70;2.17;;;20.60;72.20;;;;;;4927176;29;20511;-61
2023/07/09 00:18:34;;;;;;;2.70;2.10;;;20.50;72.30;;;;;;4922796;29;20067;-61
2023/07/09 00:21:01;;;;;;;3.05;1.88;;;20.50;72.60;;;;;;4922866;29;20031;-62
2023/07/09 00:23:27;;;;;;;5.47;2.30;;;20.40;72.70;;;;;;4920517;29;20553;-62
2023/07/09 00:25:53;;;;;;;7.55;2.25;;;20.40;72.90;;;;;;4919796;29;20036;-62
2023/07/09 00:28:20;;;;;;;1.88;1.75;;;20.40;73.10;;;;;;4924882;29;20455;-62
2023/07/09 00:30:46;;;;;;;2.63;1.95;;;20.30;73.60;;;;;;4926843;29;20591;-62
2023/07/09 00:33:14;;;;;;;2.50;2.05;;;20.30;73.90;;;;;;4926345;29;20050;-62
2023/07/09 00:35:46;;;;;;;3.72;2.55;;;20.30;73.90;;;;;;4923573;29;20036;-62
2023/07/09 00:38:23;;;;;;;3.22;2.30;;;20.30;74.00;;;;;;4924735;29;20397;-62
2023/07/09 00:41:03;;;;;;;5.20;2.97;;;20.30;74.20;;;;;;4919593;29;20028;-62
2023/07/09 00:43:37;;;;;;;3.30;2.60;;;20.30;74.30;;;;;;4919354;29;20492;-61
2023/07/09 00:46:27;;;;;;;2.67;2.20;;;20.20;74.30;;;;;;4923061;29;20110;-62
2023/07/09 00:49:09;;;;;;;4.57;2.28;;;20.20;74.40;;;;;;4928112;29;20044;-62
2023/07/09 00:51:41;;;;;;;3.78;2.42;;;20.10;74.60;;;;;;4909080;29;20032;-62
2023/07/09 00:54:32;;;;;;;5.05;2.40;;;20.10;74.60;;;;;;4914158;29;20099;-62
2023/07/09 00:57:17;;;;;;;2.80;2.20;;;20.10;74.20;;;;;;4925913;29;20713;-62
2023/07/09 00:59:48;;;;;;;3.58;2.00;;;20.10;74.70;;;;;;4925931;29;20083;-62
2023/07/09 01:02:14;;;;;;;3.03;2.20;;;20.10;75.30;;;;;;4923965;29;20396;-62
2023/07/09 01:04:41;;;;;;;2.67;1.90;;;20.10;75.50;;;;;;4913343;29;20032;-62
2023/07/09 01:07:08;;;;;;;2.72;2.22;;;20.00;75.40;;;;;;4912092;29;20051;-62
2023/07/09 01:09:40;;;;;;;3.80;2.42;;;20.00;75.30;;;;;;4912464;29;20177;-63
2023/07/09 01:12:08;;;;;;;2.97;2.20;;;20.10;75.30;;;;;;4924164;29;20548;-62
2023/07/09 01:14:36;;;;;;;2.50;2.03;;;20.00;75.40;;;;;;4920879;29;20035;-62
2023/07/09 01:17:05;;;;;;;3.58;2.13;;;20.10;75.70;;;;;;4921766;29;20059;-62
2023/07/09 01:19:42;;;;;;;2.78;1.95;;;20.10;76.10;;;;;;4916860;29;20470;-62
2023/07/09 01:22:11;;;;;;;5.47;2.05;;;20.00;76.60;;;;;;4925637;29;20062;-62
2023/07/09 01:24:51;;;;;;;3.60;2.65;;;20.10;76.20;;;;;;4911326;29;20031;-62
2023/07/09 01:27:22;;;;;;;3.25;2.35;;;20.10;76.40;;;;;;4924899;29;20048;-62
2023/07/09 01:29:50;;;;;;;4.28;2.60;;;20.10;76.60;;;;;;4922073;29;20036;-62
2023/07/09 01:32:18;;;;;;;3.90;2.17;;;20.20;75.90;;;;;;4921925;29;20039;-62
2023/07/09 01:34:49;;;;;;;4.00;2.50;;;20.30;75.40;;;;;;4917640;29;20032;-62
2023/07/09 01:37:21;;;;;;;3.67;2.38;;;20.30;75.70;;;;;;4909638;29;20091;-62
2023/07/09 01:39:49;;;;;;;4.85;2.53;;;20.40;75.00;;;;;;4925307;29;20052;-62
2023/07/09 01:42:18;;;;;;;2.33;1.98;;;20.40;74.90;;;;;;4926007;29;20039;-62
2023/07/09 01:44:45;;;;;;;4.75;2.35;;;20.40;74.90;;;;;;4923429;29;20111;-62
2023/07/09 01:47:12;;;;;;;4.15;2.67;;;20.40;74.70;;;;;;4906425;29;20031;-62
2023/07/09 01:49:39;;;;;;;6.57;2.47;;;20.30;74.60;;;;;;4905783;29;20036;-62
2023/07/09 01:52:10;;;;;;;3.42;2.25;;;20.30;74.70;;;;;;4909877;29;20055;-62
2023/07/09 01:54:37;;;;;;;3.75;2.40;;;20.20;74.90;;;;;;4917184;29;20040;-62
2023/07/09 01:57:22;;;;;;;3.63;2.17;;;20.10;75.30;;;;;;4927185;29;20027;-62
2023/07/09 01:59:52;;;;;;;2.80;2.05;;;20.00;75.50;;;;;;4924950;29;20150;-62
2023/07/09 02:02:19;;;;;;;5.30;2.55;;;19.90;75.70;;;;;;4907400;29;20044;-62
2023/07/09 02:04:47;;;;;;;3.15;2.45;;;19.80;76.20;;;;;;4919912;29;20056;-62
2023/07/09 02:07:14;;;;;;;3.83;2.22;;;19.70;76.20;;;;;;4905166;29;20496;-62
2023/07/09 02:09:40;;;;;;;3.40;2.35;;;19.70;76.70;;;;;;4902818;29;20036;-61
2023/07/09 02:12:06;;;;;;;4.03;2.17;;;19.60;76.90;;;;;;4921730;29;20028;-62
2023/07/09 02:14:32;;;;;;;2.47;2.17;;;19.60;77.30;;;;;;4909879;29;20074;-61
2023/07/09 02:16:58;;;;;;;3.10;2.25;;;19.50;77.40;;;;;;4907883;29;20096;-61
2023/07/09 02:19:24;;;;;;;4.72;2.20;;;19.50;77.60;;;;;;4926452;29;20846;-61
2023/07/09 02:21:50;;;;;;;2.65;2.20;;;19.40;77.80;;;;;;4910215;29;20043;-62
2023/07/09 02:24:16;;;;;;;3.97;2.50;;;19.40;78.00;;;;;;4902345;29;20067;-62
2023/07/09 02:26:41;;;;;;;2.72;2.42;;;19.40;78.40;;;;;;4920482;29;20743;-62
2023/07/09 02:29:07;;;;;;;4.00;2.40;;;19.30;78.60;;;;;;4920384;29;20070;-62
2023/07/09 02:31:33;;;;;;;4.30;2.38;;;19.30;78.80;;;;;;4920010;29;20031;-62
2023/07/09 02:34:00;;;;;;;3.83;2.40;;;19.20;78.80;;;;;;4925557;29;20027;-62
2023/07/09 02:36:26;;;;;;;3.72;2.30;;;19.20;78.60;;;;;;4922639;29;20035;-62
2023/07/09 02:38:52;;;;;;;4.03;2.30;;;19.10;78.60;;;;;;4922606;29;20039;-62
2023/07/09 02:41:17;;;;;;;3.00;2.28;;;19.10;79.00;;;;;;4902213;29;20044;-62
2023/07/09 02:43:43;;;;;;;3.60;2.55;;;19.10;79.30;;;;;;4919295;29;20376;-62
2023/07/09 02:46:10;;;;;;;3.30;2.00;;;19.00;79.80;;;;;;4896941;29;20040;-62
2023/07/09 02:48:36;;;;;;;3.47;2.55;;;19.00;79.80;;;;;;4902445;29;20123;-61
2023/07/09 02:51:02;;;;;;;3.88;2.33;;;19.00;80.20;;;;;;4925926;29;20118;-61
2023/07/09 02:53:28;;;;;;;4.47;2.88;;;19.00;79.70;;;;;;4923606;29;20059;-62
2023/07/09 02:55:54;;;;;;;3.92;2.15;;;19.10;79.80;;;;;;4910266;29;20039;-61
2023/07/09 02:58:20;;;;;;;5.38;2.40;;;19.10;79.80;;;;;;4922622;29;20059;-62
2023/07/09 03:00:52;;;;;;;3.95;2.20;;;19.10;79.80;;;;;;4906778;29;20047;-62
2023/07/09 03:03:20;;;;;;;3.03;1.88;;;19.00;79.90;;;;;;4908738;29;20099;-61
2023/07/09 03:05:46;;;;;;;3.85;2.40;;;19.00;80.10;;;;;;4900967;29;20035;-62
2023/07/09 03:08:13;;;;;;;3.35;2.78;;;19.00;80.30;;;;;;4909370;29;20040;-61
2023/07/09 03:10:39;;;;;;;5.70;2.60;;;19.00;80.60;;;;;;4908556;29;20039;-62
2023/07/09 03:13:04;;;;;;;3.00;2.42;;;19.00;80.80;;;;;;4907756;29;20764;-62
2023/07/09 03:15:31;;;;;;;3.72;2.45;;;19.00;81.00;;;;;;4921853;29;20056;-62
2023/07/09 03:17:57;;;;;;;2.85;2.22;;;19.00;81.20;;;;;;4921162;29;20030;-61
2023/07/09 03:20:23;;;;;;;2.92;2.22;;;19.00;81.50;;;;;;4919800;29;20353;-62
2023/07/09 03:22:49;;;;;;;4.22;2.60;;;19.00;81.80;;;;;;4917924;29;20067;-62
2023/07/09 03:25:14;;;;;;;3.40;2.25;;;18.90;82.00;;;;;;4922534;29;20504;-62
2023/07/09 03:27:40;;;;;;;3.65;2.58;;;18.90;82.60;;;;;;4924807;29;20040;-61
2023/07/09 03:30:06;;;;;;;4.75;2.83;;;18.90;83.30;;;;;;4907169;29;20439;-62
2023/07/09 03:32:32;;;;;;;5.55;2.67;;;19.00;82.70;;;;;;4921690;29;20451;-62
2023/07/09 03:34:58;;;;;;;3.80;2.65;;;19.00;82.70;;;;;;4921708;29;20058;-62
2023/07/09 03:37:24;;;;;;;4.28;2.50;;;19.10;82.50;;;;;;4919862;29;20039;-63
2023/07/09 03:39:49;;;;;;;3.08;2.45;;;19.20;82.20;;;;;;4921098;29;20143;-62
2023/07/09 03:42:16;;;;;;;7.53;2.50;;;19.20;81.80;;;;;;4919006;29;20094;-62
2023/07/09 03:44:42;;;;;;;3.78;2.67;;;19.20;82.30;;;;;;4925320;29;20767;-62
2023/07/09 03:47:07;;;;;;;3.00;2.40;;;19.30;82.40;;;;;;4924502;29;20042;-62
2023/07/09 03:49:33;;;;;;;3.72;2.55;;;19.30;82.10;;;;;;4922439;29;20114;-62
2023/07/09 03:51:59;;;;;;;2.65;2.10;;;19.40;82.60;;;;;;4921906;29;20035;-62
2023/07/09 03:54:25;;;;;;;6.18;2.83;;;19.40;82.20;;;;;;4919966;29;20581;-62
2023/07/09 03:56:51;;;;;;;12.30;3.63;;;19.40;82.10;;;;;;4905982;29;20032;-62
2023/07/09 03:59:16;;;;;;;3.22;2.50;;;19.50;82.60;;;;;;4921939;29;20032;-62
2023/07/09 04:01:46;;;;;;;5.90;3.03;;;19.50;82.70;;;;;;4926865;29;20508;-62
2023/07/09 04:04:12;;;;;;;3.38;2.67;;;19.50;82.80;;;;;;4927844;29;20044;-62
2023/07/09 04:06:38;;;;;;;2.85;2.42;;;19.50;83.10;;;;;;4925390;29;20290;-62
2023/07/09 04:09:04;;;;;;;2.72;2.30;;;19.60;83.80;;;;;;4925998;29;20115;-62
2023/07/09 04:11:30;;;;;;;2.83;2.35;;;19.60;84.10;;;;;;4924073;29;20164;-62
2023/07/09 04:13:56;;;;;;;4.97;2.63;;;19.70;84.30;;;;;;4923312;29;20679;-62
2023/07/09 04:16:21;;;;;;;3.45;2.50;;;19.60;84.50;;;;;;4920748;29;20038;-62
2023/07/09 04:18:48;;;;;;;4.95;2.55;;;19.60;84.60;;;;;;4927172;29;20095;-62
2023/07/09 04:21:14;;;;;;;3.40;2.83;;;19.60;84.90;;;;;;4928289;29;20035;-62
2023/07/09 04:23:40;;;;;;;2.97;2.20;;;19.60;85.50;;;;;;4925346;29;20067;-62
2023/07/09 04:26:08;;;;;;;4.32;2.80;;;19.60;86.10;;;;;;4925944;29;20039;-62
2023/07/09 04:28:35;;;;;;;4.68;2.50;;;19.50;86.60;;;;;;4922831;29;20063;-62
2023/07/09 04:31:00;;;;;;;4.80;2.53;;;19.50;87.20;;;;;;4923268;29;20043;-62
2023/07/09 04:33:26;;;;;;;3.88;2.65;;;19.50;87.30;;;;;;4920376;29;20050;-62
2023/07/09 04:35:52;;;;;;;3.38;2.47;;;19.50;87.90;;;;;;4923932;29;20039;-62
2023/07/09 04:38:18;;;;;;;5.47;2.67;;;19.50;88.30;;;;;;4928505;29;20488;-62
2023/07/09 04:40:44;;;;;;;3.70;2.60;;;19.50;88.60;;;;;;4927040;29;20113;-62
2023/07/09 04:43:10;;;;;;;6.00;3.42;;;19.50;88.80;;;;;;4925757;29;20493;-62
2023/07/09 04:45:36;;;;;;;2.92;2.50;;;19.60;90.00;;;;;;4909093;29;20059;-62
2023/07/09 04:48:01;;;;;;;4.78;2.63;;;19.60;89.80;;;;;;4923743;29;20038;-62
2023/07/09 04:50:27;;;;;;;4.43;2.60;;;19.50;90.10;;;;;;4920328;29;20043;-62
2023/07/09 04:52:53;;;;;;;3.78;3.20;;;19.60;90.30;;;;;;4920118;29;20179;-62
2023/07/09 04:55:19;;;;;;;3.38;2.67;;;19.60;90.40;;;;;;4927893;29;20047;-62
2023/07/09 04:57:45;;;;;;;6.60;3.35;;;19.60;90.70;;;;;;4926360;29;20031;-63
2023/07/09 05:00:12;;;;;;;3.90;2.90;;;19.70;90.90;;;;;;4926043;29;20047;-62
2023/07/09 05:02:37;;;;;;;5.93;3.13;;;19.70;91.20;;;;;;4922496;29;20098;-62
2023/07/09 05:05:05;;;;;;;4.22;3.15;;;19.70;91.40;;;;;;4925972;29;20036;-62
2023/07/09 05:07:32;;;;;;;4.68;2.95;;;19.70;91.70;;;;;;4919538;29;20058;-62
2023/07/09 05:09:58;;;;;;;4.65;3.22;;;19.80;91.90;;;;;;4920980;29;20032;-62
2023/07/09 05:12:27;;;;;;;7.90;3.42;;;19.90;92.10;;;;;;4928237;29;20520;-62
2023/07/09 05:14:54;;;;;;;5.57;3.45;;;20.00;92.40;;;;;;4926319;29;20039;-62
2023/07/09 05:17:20;;;;;;;4.72;3.22;;;20.00;92.50;;;;;;4925913;29;20117;-62
2023/07/09 05:19:45;;;;;;;6.45;3.03;;;20.10;92.30;;;;;;4922931;29;20118;-62
2023/07/09 05:22:11;;;;;;;4.68;2.75;;;20.20;91.80;;;;;;4924009;29;20043;-62
2023/07/09 05:24:37;;;;;;;3.47;2.65;;;20.30;91.80;;;;;;4919863;29;20552;-62
2023/07/09 05:27:03;;;;;;;4.43;2.83;;;20.40;91.90;;;;;;4921613;29;20031;-62
2023/07/09 05:29:29;;;;;;;4.60;3.08;;;20.70;92.00;;;;;;4924307;29;20115;-62
2023/07/09 05:31:54;;;;;;;8.27;3.20;;;21.00;91.60;;;;;;4926290;29;20067;-62
2023/07/09 05:34:21;;;;;;;6.70;3.22;;;21.20;91.00;;;;;;4925500;29;20035;-62
2023/07/09 05:36:47;;;;;;;3.08;2.55;;;21.30;88.40;;;;;;4923291;29;20517;-62
2023/07/09 05:39:13;;;;;;;3.90;2.50;;;21.30;86.80;;;;;;4923631;29;20020;-62
2023/07/09 05:41:39;;;;;;;4.45;3.15;;;21.30;85.80;;;;;;4919624;29;20040;-62
2023/07/09 05:44:05;;;;;;;3.80;2.70;;;21.30;88.20;;;;;;4921191;29;20040;-62
2023/07/09 05:46:36;;;;;;;4.00;2.83;;;21.30;87.40;;;;;;4920819;29;20039;-62
2023/07/09 05:49:03;;;;;;;4.22;2.95;;;21.30;88.30;;;;;;4927217;29;20039;-63
2023/07/09 05:51:29;;;;;;;3.00;2.70;;;21.30;88.20;;;;;;4926103;29;20325;-62
2023/07/09 05:53:55;;;;;;;4.85;2.72;;;21.30;88.80;;;;;;4923131;29;20092;-62
2023/07/09 05:56:20;;;;;;;5.75;4.03;;;21.40;88.00;;;;;;4923533;29;20035;-62
2023/07/09 05:58:47;;;;;;;5.30;3.72;;;21.50;87.30;;;;;;4920448;29;20028;-62
2023/07/09 06:01:13;;;;;;;5.65;3.45;;;21.70;86.50;;;;;;4921145;29;20563;-62
2023/07/09 06:03:39;;;;;;;8.30;4.70;;;21.90;86.30;;;;;;4916654;29;20543;-62
2023/07/09 06:06:06;;;;;;;6.07;3.38;;;22.00;85.50;;;;;;4927432;29;20027;-62
2023/07/09 06:08:32;;;;;;;7.95;3.80;;;22.20;84.10;;;;;;4925675;29;20126;-62
2023/07/09 06:11:01;;;;;;;3.05;2.70;;;22.20;85.20;;;;;;4924184;29;20675;-62
2023/07/09 06:13:30;;;;;;;6.47;3.00;;;22.30;83.40;;;;;;4924390;29;20062;-62
2023/07/09 06:15:57;;;;;;;4.68;3.08;;;22.30;83.60;;;;;;4924143;29;20063;-62
2023/07/09 06:18:24;;;;;;;4.20;3.22;;;22.30;83.30;;;;;;4919757;29;20040;-62
2023/07/09 06:20:52;;;;;;;4.88;3.10;;;22.40;82.30;;;;;;4918496;29;20087;-62
2023/07/09 06:23:18;;;;;;;5.15;3.15;;;22.50;81.50;;;;;;4926961;29;20039;-62
2023/07/09 06:25:47;;;;;;;7.40;3.33;;;22.60;80.70;;;;;;4924779;29;20046;-62
2023/07/09 06:28:17;;;;;;;8.23;3.17;;;22.60;81.00;;;;;;4924708;29;20039;-62
2023/07/09 06:30:43;;;;;;;3.13;2.75;;;22.70;80.50;;;;;;4921766;29;20493;-62
2023/07/09 06:33:11;;;;;;;4.57;3.00;;;22.70;79.90;;;;;;4922726;29;20067;-62
2023/07/09 06:35:37;;;;;;;4.65;3.03;;;22.80;78.60;;;;;;4918433;29;20047;-62
2023/07/09 06:38:02;;;;;;;5.97;3.58;;;22.80;79.20;;;;;;4920186;29;20036;-62
2023/07/09 06:40:29;;;;;;;3.22;2.80;;;22.90;78.10;;;;;;4923328;29;20063;-62
2023/07/09 06:42:54;;;;;;;5.05;3.53;;;22.90;80.30;;;;;;4925314;29;20077;-62
2023/07/09 06:45:31;;;;;;;6.80;2.80;;;23.00;82.00;;;;;;4902518;29;20032;-62
2023/07/09 06:47:57;;;;;;;5.80;3.58;;;23.00;82.20;;;;;;4923904;29;20039;-62
2023/07/09 06:50:23;;;;;;;4.43;3.15;;;23.00;81.20;;;;;;4922308;29;20654;-62
2023/07/09 06:52:49;;;;;;;3.85;2.88;;;23.10;80.00;;;;;;4918296;29;20488;-62
2023/07/09 06:55:15;;;;;;;5.80;3.63;;;23.20;77.80;;;;;;4919551;29;20035;-62
2023/07/09 06:57:40;;;;;;;4.78;3.05;;;23.40;77.00;;;;;;4919926;29;20113;-62
2023/07/09 07:00:07;;;;;;;3.65;2.90;;;23.60;75.90;;;;;;4925983;29;20027;-62
2023/07/09 07:02:33;;;;;;;3.60;2.90;;;23.60;76.40;;;;;;4911876;29;20480;-62
2023/07/09 07:04:59;;;;;;;3.35;2.63;;;23.70;76.20;;;;;;4923109;29;20127;-61
2023/07/09 07:07:25;;;;;;;4.85;3.20;;;23.80;75.20;;;;;;4921134;29;20043;-61
2023/07/09 07:09:50;;;;;;;8.35;3.25;;;23.90;75.10;;;;;;4919135;29;20040;-62
2023/07/09 07:12:25;;;;;;;5.68;3.20;;;24.00;74.10;;;;;;4920477;29;20036;-62
2023/07/09 07:14:51;;;;;;;5.33;2.70;;;24.20;73.80;;;;;;4917128;29;20500;-62
2023/07/09 07:17:17;;;;;;;5.53;3.00;;;24.30;72.90;;;;;;4925259;29;20758;-62
2023/07/09 07:19:43;;;;;;;5.35;3.15;;;24.30;73.30;;;;;;4922908;29;20028;-63
2023/07/09 07:22:09;;;;;;;4.30;3.08;;;24.40;73.10;;;;;;4922655;29;20059;-62
2023/07/09 07:24:35;;;;;;;4.05;3.05;;;24.60;73.10;;;;;;4919918;29;20067;-62
2023/07/09 07:27:01;;;;;;;6.35;3.10;;;24.70;71.00;;;;;;4920761;29;20032;-62
2023/07/09 07:29:26;;;;;;;3.90;2.90;;;24.80;71.60;;;;;;4918147;29;20035;-62
2023/07/09 07:31:54;;;;;;;3.25;2.83;;;24.80;73.30;;;;;;4920125;29;20583;-63
2023/07/09 07:34:20;;;;;;;6.60;2.97;;;25.00;71.90;;;;;;4928077;29;20047;-62
2023/07/09 07:36:46;;;;;;;4.88;3.35;;;25.10;70.20;;;;;;4926700;29;20034;-62
2023/07/09 07:39:12;;;;;;;4.97;3.20;;;25.10;69.70;;;;;;4926314;29;20039;-62
2023/07/09 07:41:38;;;;;;;4.10;2.85;;;25.10;69.90;;;;;;4923437;29;20046;-62
2023/07/09 07:44:04;;;;;;;7.18;3.42;;;25.10;69.00;;;;;;4923889;29;20094;-62
2023/07/09 07:46:32;;;;;;;4.88;3.38;;;25.20;69.50;;;;;;4921153;29;20161;-62
2023/07/09 07:48:58;;;;;;;6.97;3.30;;;25.30;71.20;;;;;;4921068;29;20055;-62
2023/07/09 07:51:23;;;;;;;3.92;2.90;;;25.40;70.20;;;;;;4924835;29;20550;-62
2023/07/09 07:53:49;;;;;;;7.65;3.33;;;25.50;70.80;;;;;;4922874;29;20772;-62
2023/07/09 07:56:15;;;;;;;6.10;3.20;;;25.50;70.00;;;;;;4926777;29;20035;-62
2023/07/09 07:58:41;;;;;;;5.90;2.95;;;25.60;68.20;;;;;;4923447;29;20028;-62
2023/07/09 08:01:07;;;;;;;4.05;2.88;;;25.60;68.00;;;;;;4926399;29;20031;-62
2023/07/09 08:03:32;;;;;;;4.47;3.45;;;25.70;69.40;;;;;;4920863;29;20068;-62
2023/07/09 08:05:59;;;;;;;5.35;3.70;;;25.80;66.90;;;;;;4921407;29;20058;-62
2023/07/09 08:08:25;;;;;;;4.22;3.10;;;25.90;68.40;;;;;;4921179;29;20059;-62
2023/07/09 08:10:51;;;;;;;3.83;3.25;;;26.00;68.90;;;;;;4927068;29;20835;-62
2023/07/09 08:13:17;;;;;;;4.38;3.15;;;26.10;69.10;;;;;;4927836;29;20071;-62
2023/07/09 08:15:45;;;;;;;5.55;3.67;;;26.20;69.00;;;;;;4923728;29;20032;-62
2023/07/09 08:18:11;;;;;;;5.43;3.40;;;26.30;69.30;;;;;;4924313;29;20036;-62
2023/07/09 08:20:37;;;;;;;4.25;3.28;;;26.30;68.00;;;;;;4920760;29;20040;-62
2023/07/09 08:23:02;;;;;;;5.47;3.60;;;26.50;66.40;;;;;;4922302;29;20032;-62
2023/07/09 08:25:28;;;;;;;6.72;3.53;;;26.60;67.40;;;;;;4921159;29;20035;-62
2023/07/09 08:27:54;;;;;;;5.78;3.60;;;26.60;68.20;;;;;;4930415;29;20040;-62
2023/07/09 08:30:20;;;;;;;8.02;2.90;;;26.80;66.90;;;;;;4924737;29;20039;-62
2023/07/09 08:32:46;;;;;;;7.32;3.30;;;26.80;66.40;;;;;;4924248;29;20043;-62
2023/07/09 08:35:12;;;;;;;4.10;3.20;;;26.90;67.00;;;;;;4924466;29;20038;-62
2023/07/09 08:37:38;;;;;;;4.43;3.20;;;27.00;65.30;;;;;;4920886;29;20028;-62
2023/07/09 08:40:06;;;;;;;3.50;3.10;;;27.10;62.70;;;;;;4922718;29;20134;-62
2023/07/09 08:42:41;;;;;;;8.23;2.72;;;27.20;63.60;;;;;;4918428;29;20067;-62
2023/07/09 08:45:16;;;;;;;5.45;3.17;;;27.30;63.70;;;;;;4924829;29;20027;-62
2023/07/09 08:47:57;;;;;;;3.78;2.67;;;27.40;62.30;;;;;;4925801;29;20122;-62
2023/07/09 08:50:29;;;;;;;5.32;2.80;;;27.50;63.50;;;;;;4923320;29;20035;-62
2023/07/09 08:52:57;;;;;;;5.13;3.08;;;27.60;64.50;;;;;;4925176;29;20019;-63
2023/07/09 08:55:27;;;;;;;5.43;3.03;;;27.80;62.50;;;;;;4927986;29;20032;-62
2023/07/09 08:58:00;;;;;;;5.18;2.90;;;27.90;59.80;;;;;;4910948;29;20032;-62
2023/07/09 09:00:41;;;;;;;4.05;3.15;;;28.00;60.80;;;;;;4918614;29;20032;-62
2023/07/09 09:03:13;;;;;;;4.60;3.00;;;28.10;60.50;;;;;;4923794;29;20039;-62
2023/07/09 09:05:44;;;;;;;4.13;3.08;;;28.20;60.00;;;;;;4925001;29;20523;-62
2023/07/09 09:08:10;;;;;;;4.35;3.10;;;28.30;61.40;;;;;;4924866;29;20039;-62
2023/07/09 09:10:42;;;;;;;3.50;2.97;;;28.40;60.60;;;;;;4927588;29;20040;-63
2023/07/09 09:13:18;;;;;;;4.25;2.83;;;28.40;60.20;;;;;;4923746;29;20042;-62
2023/07/09 09:15:47;;;;;;;3.63;2.92;;;28.50;61.30;;;;;;4927827;29;20116;-62
2023/07/09 09:18:25;;;;;;;3.53;2.80;;;28.60;58.90;;;;;;4927887;29;20039;-62
2023/07/09 09:21:06;;;;;;;4.00;2.72;;;28.60;59.60;;;;;;4926162;29;20036;-62
2023/07/09 09:23:40;;;;;;;6.05;2.92;;;28.70;59.50;;;;;;4922826;29;20039;-62
2023/07/09 09:26:21;;;;;;;5.53;3.15;;;28.80;59.60;;;;;;4927634;29;20058;-63
2023/07/09 09:28:48;;;;;;;6.20;3.03;;;28.80;59.80;;;;;;4922342;29;20930;-62
2023/07/09 09:31:14;;;;;;;3.90;3.05;;;28.90;57.40;;;;;;4923650;29;20086;-62
2023/07/09 09:33:48;;;;;;;4.80;2.60;;;29.00;58.00;;;;;;4918658;29;20099;-62
2023/07/09 09:36:21;;;;;;;4.47;3.00;;;29.10;56.30;;;;;;4925749;29;20142;-62
2023/07/09 09:38:50;;;;;;;4.13;3.10;;;29.10;55.70;;;;;;4927115;29;20040;-63
2023/07/09 09:41:19;;;;;;;3.70;2.72;;;29.20;56.40;;;;;;4928088;29;20057;-62
2023/07/09 09:43:47;;;;;;;3.78;2.90;;;29.30;56.80;;;;;;4927487;29;20122;-63
2023/07/09 09:46:22;;;;;;;4.78;3.38;;;29.40;57.30;;;;;;4928024;29;20039;-62
2023/07/09 09:48:50;;;;;;;4.00;3.17;;;29.50;57.10;;;;;;4926419;29;20084;-63
2023/07/09 09:51:18;;;;;;;3.95;2.67;;;29.60;56.70;;;;;;4927183;29;20062;-62
2023/07/09 09:53:53;;;;;;;4.70;2.80;;;29.70;55.90;;;;;;4926356;29;20027;-62
2023/07/09 09:56:30;;;;;;;3.08;2.65;;;29.70;52.70;;;;;;4926109;29;20028;-62
2023/07/09 09:58:57;;;;;;;5.43;2.97;;;29.70;55.40;;;;;;4909997;29;20032;-62
2023/07/09 10:01:32;;;;;;;6.43;3.03;;;29.70;56.60;;;;;;4922761;29;20047;-62
2023/07/09 10:03:59;;;;;;;3.58;2.70;;;29.80;54.30;;;;;;4922496;29;20032;-63
2023/07/09 10:06:28;;;;;;;7.55;3.08;;;29.80;54.40;;;;;;4921638;29;20040;-62
2023/07/09 10:09:21;;;;;;;4.05;3.00;;;29.90;52.60;;;;;;4923934;29;20087;-62
2023/07/09 10:11:55;;;;;;;3.70;2.53;;;30.10;54.70;;;;;;4920114;29;20041;-63
2023/07/09 10:14:38;;;;;;;6.68;3.10;;;30.20;53.30;;;;;;4923063;29;20062;-62
2023/07/09 10:17:18;;;;;;;3.47;2.60;;;30.20;51.70;;;;;;4922694;29;20143;-62
2023/07/09 10:19:48;;;;;;;3.53;2.80;;;30.20;51.10;;;;;;4922751;29;20631;-62
2023/07/09 10:22:28;;;;;;;4.32;2.70;;;30.30;50.60;;;;;;4923166;29;20039;-62
2023/07/09 10:25:09;;;;;;;3.45;3.10;;;30.30;50.30;;;;;;4920993;29;20067;-62
2023/07/09 10:27:53;;;;;;;7.45;3.03;;;30.40;49.70;;;;;;4918142;29;20107;-62
2023/07/09 10:30:55;;;;;;;4.45;2.67;;;30.50;52.00;;;;;;4918169;29;20038;-62
2023/07/09 10:33:46;;;;;;;4.13;3.00;;;30.60;50.00;;;;;;4908636;29;20055;-62
2023/07/09 10:36:47;;;;;;;5.15;2.45;;;30.60;49.40;;;;;;4924739;29;20118;-62
2023/07/09 10:39:38;;;;;;;4.70;2.60;;;30.70;49.50;;;;;;4922955;29;20078;-62
2023/07/09 10:42:07;;;;;;;5.35;2.75;;;30.80;49.80;;;;;;4920467;29;20768;-62
2023/07/09 10:44:38;;;;;;;3.67;2.70;;;30.90;48.40;;;;;;4918281;29;20040;-62
2023/07/09 10:47:12;;;;;;;4.22;2.80;;;31.00;48.60;;;;;;4920013;29;20040;-62
2023/07/09 10:49:41;;;;;;;5.47;3.05;;;31.10;48.60;;;;;;4924269;29;20412;-62
2023/07/09 10:52:07;;;;;;;3.90;3.00;;;31.20;46.90;;;;;;4925254;29;20035;-62
2023/07/09 10:54:47;;;;;;;3.25;2.95;;;31.30;47.40;;;;;;4923288;29;20099;-62
2023/07/09 10:57:21;;;;;;;3.80;2.55;;;31.30;48.60;;;;;;4922154;29;20516;-62
2023/07/09 10:59:49;;;;;;;3.23;2.73;;;31.40;49.80;;;;;;4919793;29;20031;-62
2023/07/09 11:02:25;;;;;;;5.28;3.03;;;31.50;47.80;;;;;;4920039;29;20338;-62
2023/07/09 11:04:59;;;;;;;4.30;2.90;;;31.70;47.90;;;;;;4921719;29;20043;-63
2023/07/09 11:07:30;;;;;;;5.30;2.70;;;31.80;47.30;;;;;;4930906;29;20775;-62
2023/07/09 11:09:58;;;;;;;4.47;2.70;;;31.80;47.40;;;;;;4930662;29;20071;-62
2023/07/09 11:12:35;;;;;;;5.15;2.80;;;31.80;46.90;;;;;;4929826;29;20039;-62
2023/07/09 11:15:12;;;;;;;4.60;2.85;;;31.80;47.20;;;;;;4926213;29;20055;-62
2023/07/09 11:17:42;;;;;;;4.20;2.45;;;31.80;46.10;;;;;;4922929;29;20138;-63
2023/07/09 11:20:20;;;;;;;3.10;2.40;;;31.80;46.40;;;;;;4927710;29;20027;-62
2023/07/09 11:23:01;;;;;;;6.47;2.75;;;31.70;46.50;;;;;;4920908;29;20080;-63
2023/07/09 11:25:42;;;;;;;3.92;3.25;;;31.60;46.20;;;;;;4930035;29;20036;-63
2023/07/09 11:28:09;;;;;;;4.32;3.05;;;31.70;46.10;;;;;;4924711;29;20039;-63
2023/07/09 11:30:53;;;;;;;4.45;3.20;;;31.60;44.90;;;;;;4926353;29;20772;-62
2023/07/09 11:33:29;;;;;;;3.75;2.92;;;31.60;44.70;;;;;;4926977;29;20043;-62
2023/07/09 11:36:11;;;;;;;3.55;2.92;;;31.50;45.70;;;;;;4924008;29;20036;-62
2023/07/09 11:38:46;;;;;;;4.63;3.03;;;31.50;46.00;;;;;;4925372;29;20032;-63
2023/07/09 11:41:25;;;;;;;4.28;3.08;;;31.50;44.90;;;;;;4929979;29;20040;-62
2023/07/09 11:43:51;;;;;;;5.32;2.97;;;31.50;45.20;;;;;;4929747;29;20027;-62
2023/07/09 11:46:26;;;;;;;5.03;2.65;;;31.60;44.50;;;;;;4930305;29;20107;-62
2023/07/09 11:48:57;;;;;;;4.38;3.03;;;31.60;45.10;;;;;;4923582;29;20111;-62
2023/07/09 11:51:49;;;;;;;4.60;3.15;;;31.70;45.90;;;;;;4925023;29;20054;-62
2023/07/09 11:54:15;;;;;;;4.63;2.83;;;31.70;45.40;;;;;;4921715;29;20492;-62
2023/07/09 11:56:41;;;;;;;4.05;2.90;;;31.70;44.70;;;;;;4920597;29;20035;-62
2023/07/09 11:59:11;;;;;;;4.15;3.33;;;31.70;45.60;;;;;;4926102;29;20027;-63
2023/07/09 12:01:44;;;;;;;4.75;2.58;;;31.70;46.90;;;;;;4928397;29;20035;-63
2023/07/09 12:04:15;;;;;;;3.90;3.17;;;31.70;45.70;;;;;;4927399;29;20035;-63
2023/07/09 12:06:42;;;;;;;8.30;3.20;;;31.80;44.50;;;;;;4924992;29;20040;-62
2023/07/09 12:09:17;;;;;;;5.05;3.08;;;31.80;45.70;;;;;;4925628;29;20035;-62
2023/07/09 12:11:49;;;;;;;4.80;3.08;;;31.70;44.20;;;;;;4923935;29;20072;-63
2023/07/09 12:14:18;;;;;;;4.05;2.72;;;31.70;44.80;;;;;;4923170;29;20034;-63
2023/07/09 12:16:46;;;;;;;4.60;3.10;;;31.70;45.10;;;;;;4925437;29;20039;-63
2023/07/09 12:19:16;;;;;;;4.10;2.65;;;31.70;44.40;;;;;;4928853;29;20575;-62
2023/07/09 12:21:45;;;;;;;5.47;2.75;;;31.80;45.90;;;;;;4926167;29;20496;-63
2023/07/09 12:24:26;;;;;;;3.33;2.90;;;31.80;43.50;;;;;;4926033;29;20035;-62
2023/07/09 12:26:58;;;;;;;5.55;3.10;;;31.80;44.50;;;;;;4923286;29;20036;-62
2023/07/09 12:29:26;;;;;;;4.65;3.05;;;31.80;45.50;;;;;;4905153;29;20090;-62
2023/07/09 12:31:52;;;;;;;5.22;2.83;;;31.90;45.60;;;;;;4911904;29;20039;-63
2023/07/09 12:34:18;;;;;;;6.72;2.90;;;31.90;44.40;;;;;;4921330;29;20046;-63
2023/07/09 12:36:48;;;;;;;3.53;3.05;;;31.90;43.80;;;;;;4927620;29;20404;-63
2023/07/09 12:39:23;;;;;;;3.72;2.53;;;31.90;44.30;;;;;;4926857;29;20035;-63
2023/07/09 12:41:49;;;;;;;4.55;3.47;;;31.90;44.30;;;;;;4924054;29;20036;-63
2023/07/09 12:44:21;;;;;;;4.93;2.88;;;32.00;46.60;;;;;;4924668;29;20095;-63
2023/07/09 12:46:49;;;;;;;4.63;3.30;;;32.00;45.00;;;;;;4921074;29;20042;-63
2023/07/09 12:49:31;;;;;;;3.13;2.78;;;32.00;45.30;;;;;;4925338;29;20505;-63
2023/07/09 12:52:02;;;;;;;3.97;2.78;;;32.00;45.30;;;;;;4920013;29;20526;-63
2023/07/09 12:54:29;;;;;;;3.95;3.05;;;32.00;45.20;;;;;;4927697;29;20792;-63
2023/07/09 12:56:59;;;;;;;4.35;3.25;;;32.00;44.30;;;;;;4925934;29;20040;-62
2023/07/09 12:59:36;;;;;;;4.03;2.80;;;32.00;43.10;;;;;;4923728;29;20115;-62